Time;durP1;ratioP1;P1;durP2;ratioP2;P2;SDS_P1;SDS_P2;PMS_P1;PMS_P2;Temp;Humidity;BMP_temperature;BMP_pressure;BME280_temperature;BME280_humidity;BME280_pressure;Samples;Min_cycle;Max_cycle;Signal;HPM_P1;HPM_P2
2023/03/05 00:00:11;;;;;;;6.00;1.17;;;3.10;99.90;;;;;;5043499;28;20214;-53
2023/03/05 00:02:59;;;;;;;4.30;1.00;;;3.10;99.90;;;;;;5059976;28;20799;-54
2023/03/05 00:05:26;;;;;;;6.10;1.60;;;3.10;99.90;;;;;;5038562;28;20206;-53
2023/03/05 00:07:55;;;;;;;4.43;0.93;;;3.10;99.90;;;;;;5053720;28;20645;-51
2023/03/05 00:10:22;;;;;;;8.07;1.07;;;3.10;99.90;;;;;;5045517;28;20684;-55
2023/03/05 00:12:51;;;;;;;6.33;0.83;;;3.10;99.90;;;;;;5050709;28;20222;-52
2023/03/05 00:15:18;;;;;;;5.40;1.00;;;3.20;99.90;;;;;;5048323;28;20610;-53
2023/03/05 00:17:44;;;;;;;4.90;1.10;;;3.20;99.90;;;;;;5051146;28;20211;-52
2023/03/05 00:20:12;;;;;;;3.07;1.23;;;3.20;99.90;;;;;;5032499;28;20214;-51
2023/03/05 00:22:39;;;;;;;4.80;1.00;;;3.20;99.90;;;;;;5047704;28;20242;-52
2023/03/05 00:25:09;;;;;;;3.50;1.10;;;3.20;99.90;;;;;;5049172;28;20210;-52
2023/03/05 00:27:35;;;;;;;5.00;0.70;;;3.20;99.90;;;;;;5043737;28;20199;-52
2023/03/05 00:30:02;;;;;;;2.83;0.77;;;3.20;99.90;;;;;;5042241;28;20207;-54
2023/03/05 00:32:29;;;;;;;3.60;0.80;;;3.20;99.90;;;;;;5043291;28;20945;-54
2023/03/05 00:34:56;;;;;;;5.07;1.07;;;3.20;99.90;;;;;;5045602;28;20225;-54
2023/03/05 00:37:23;;;;;;;7.00;0.97;;;3.20;99.90;;;;;;5032507;28;20270;-50
2023/03/05 00:39:50;;;;;;;6.50;0.97;;;3.20;99.90;;;;;;5053339;28;20195;-53
2023/03/05 00:42:19;;;;;;;2.43;0.67;;;3.20;99.90;;;;;;5041306;28;20219;-53
2023/03/05 00:44:45;;;;;;;5.53;0.97;;;3.20;99.90;;;;;;5049931;28;20251;-53
2023/03/05 00:47:12;;;;;;;4.20;0.80;;;3.20;99.90;;;;;;5045340;28;20292;-52
2023/03/05 00:49:39;;;;;;;4.03;1.10;;;3.20;99.90;;;;;;5044753;28;20202;-51
2023/03/05 00:52:06;;;;;;;5.13;1.00;;;3.20;99.90;;;;;;5028374;28;20281;-55
2023/03/05 00:54:33;;;;;;;4.00;1.50;;;3.20;99.90;;;;;;5046741;28;20195;-55
2023/03/05 00:56:59;;;;;;;4.17;0.87;;;3.20;99.90;;;;;;5048721;28;20195;-53
2023/03/05 00:59:27;;;;;;;4.90;1.03;;;3.20;99.90;;;;;;5041337;28;20737;-50
2023/03/05 01:01:54;;;;;;;6.87;1.17;;;3.10;99.90;;;;;;5043469;28;20227;-54
2023/03/05 01:04:22;;;;;;;2.93;0.80;;;3.00;99.90;;;;;;5040161;28;20933;-48
2023/03/05 01:06:49;;;;;;;7.47;0.90;;;3.00;99.90;;;;;;5044708;28;20560;-49
2023/03/05 01:09:15;;;;;;;5.37;1.27;;;2.90;99.90;;;;;;5037123;28;20202;-50
2023/03/05 01:11:42;;;;;;;2.83;0.80;;;2.80;99.90;;;;;;5052878;28;20211;-49
2023/03/05 01:14:28;;;;;;;6.03;1.20;;;2.80;99.90;;;;;;5051387;28;20198;-49
2023/03/05 01:16:56;;;;;;;4.80;1.00;;;2.60;99.90;;;;;;5048775;28;20195;-53
2023/03/05 01:19:23;;;;;;;4.30;1.20;;;2.60;99.90;;;;;;5042021;28;20435;-53
2023/03/05 01:21:50;;;;;;;5.60;0.97;;;2.60;99.90;;;;;;5044108;28;20307;-50
2023/03/05 01:24:17;;;;;;;4.53;0.93;;;2.50;99.90;;;;;;5031525;28;20900;-54
2023/03/05 01:26:44;;;;;;;6.87;1.13;;;2.50;99.90;;;;;;5051346;28;20701;-51
2023/03/05 01:29:10;;;;;;;3.53;1.07;;;2.50;99.90;;;;;;5057244;28;20210;-55
2023/03/05 01:31:39;;;;;;;2.67;0.90;;;2.50;99.90;;;;;;5063104;28;20257;-55
2023/03/05 01:34:05;;;;;;;6.87;1.27;;;2.50;99.90;;;;;;5059726;28;20206;-54
2023/03/05 01:36:33;;;;;;;3.63;0.90;;;2.50;99.90;;;;;;5060835;28;20218;-54
2023/03/05 01:39:01;;;;;;;7.97;1.40;;;2.50;99.90;;;;;;5043049;28;20574;-52
2023/03/05 01:41:28;;;;;;;4.23;1.23;;;2.50;99.90;;;;;;5048522;28;20227;-51
2023/03/05 01:43:55;;;;;;;4.03;0.87;;;2.50;99.90;;;;;;5046966;28;20243;-52
2023/03/05 01:46:26;;;;;;;6.20;1.17;;;2.50;99.90;;;;;;5044698;28;20902;-53
2023/03/05 01:48:59;;;;;;;4.60;1.73;;;2.50;99.90;;;;;;5046119;28;20222;-52
2023/03/05 01:51:30;;;;;;;7.57;1.50;;;2.50;99.90;;;;;;5040411;28;20206;-51
2023/03/05 01:53:59;;;;;;;7.23;1.60;;;2.50;99.90;;;;;;5041327;28;20576;-54
2023/03/05 01:56:28;;;;;;;10.37;1.37;;;2.40;99.90;;;;;;5044801;28;20298;-50
2023/03/05 01:59:02;;;;;;;5.73;1.00;;;2.40;99.90;;;;;;5043031;28;20293;-54
2023/03/05 02:01:39;;;;;;;4.97;1.57;;;2.40;99.90;;;;;;5042120;28;20242;-56
2023/03/05 02:04:09;;;;;;;9.07;2.47;;;2.40;99.90;;;;;;5053075;28;20202;-52
2023/03/05 02:06:36;;;;;;;5.17;1.30;;;2.40;99.90;;;;;;5061244;28;20255;-50
2023/03/05 02:09:04;;;;;;;7.53;1.40;;;2.40;99.90;;;;;;5060189;28;20657;-52
2023/03/05 02:11:32;;;;;;;6.93;1.37;;;2.40;99.90;;;;;;5039819;28;20692;-50
2023/03/05 02:13:59;;;;;;;4.90;0.80;;;2.40;99.90;;;;;;5053035;28;20718;-52
2023/03/05 02:16:34;;;;;;;3.57;1.10;;;2.40;99.90;;;;;;5045507;28;20187;-49
2023/03/05 02:19:01;;;;;;;1.50;0.80;;;2.40;99.90;;;;;;5041159;28;20195;-51
2023/03/05 02:21:37;;;;;;;2.73;1.20;;;2.30;99.90;;;;;;5036015;28;20815;-52
2023/03/05 02:24:05;;;;;;;5.87;1.20;;;2.30;99.90;;;;;;5049791;28;20217;-51
2023/03/05 02:26:32;;;;;;;5.27;1.57;;;2.30;99.90;;;;;;5034740;28;20689;-52
2023/03/05 02:29:02;;;;;;;3.50;1.17;;;2.30;99.90;;;;;;5052899;28;20230;-52
2023/03/05 02:31:30;;;;;;;4.87;1.30;;;2.30;99.90;;;;;;5048883;28;20198;-52
2023/03/05 02:33:56;;;;;;;3.10;1.30;;;2.30;99.90;;;;;;5060669;28;20719;-53
2023/03/05 02:36:25;;;;;;;1.83;1.03;;;2.30;99.90;;;;;;5058676;28;20210;-53
2023/03/05 02:38:55;;;;;;;5.13;1.60;;;2.30;99.90;;;;;;5059748;28;20492;-52
2023/03/05 02:41:24;;;;;;;6.07;1.50;;;2.30;99.90;;;;;;5054245;28;20249;-54
2023/03/05 02:43:51;;;;;;;2.93;1.73;;;2.30;99.90;;;;;;5044973;28;20286;-51
2023/03/05 02:46:18;;;;;;;2.00;1.60;;;2.30;99.90;;;;;;5055853;28;20203;-53
2023/03/05 02:49:07;;;;;;;3.80;1.13;;;2.20;99.90;;;;;;5059954;28;20296;-52
2023/03/05 02:51:34;;;;;;;4.53;1.30;;;2.20;99.90;;;;;;5061953;28;20967;-51
2023/03/05 02:54:03;;;;;;;4.90;1.23;;;2.20;99.90;;;;;;5064993;28;20195;-49
2023/03/05 02:56:30;;;;;;;1.53;1.13;;;2.20;99.90;;;;;;5038559;28;20231;-50
2023/03/05 02:58:57;;;;;;;3.70;1.30;;;2.20;99.90;;;;;;5047378;28;20781;-51
2023/03/05 03:01:26;;;;;;;2.17;1.07;;;2.10;99.90;;;;;;5048765;28;20215;-52
2023/03/05 03:03:53;;;;;;;2.80;1.23;;;2.10;99.90;;;;;;5056206;28;20908;-52
2023/03/05 03:06:20;;;;;;;4.67;1.07;;;2.10;99.90;;;;;;5045437;28;20206;-52
2023/03/05 03:08:47;;;;;;;5.90;1.30;;;2.10;99.90;;;;;;5063360;28;20191;-49
2023/03/05 03:11:16;;;;;;;3.80;1.10;;;2.10;99.90;;;;;;5065538;28;20197;-52
2023/03/05 03:13:43;;;;;;;3.87;1.50;;;2.10;99.90;;;;;;5033415;28;20357;-53
2023/03/05 03:16:12;;;;;;;4.97;0.90;;;2.10;99.90;;;;;;5052769;28;20202;-50
2023/03/05 03:18:39;;;;;;;3.57;1.20;;;2.10;99.90;;;;;;5053719;28;20938;-50
2023/03/05 03:21:07;;;;;;;2.50;0.70;;;2.10;99.90;;;;;;5052221;28;20203;-53
2023/03/05 03:23:34;;;;;;;2.93;1.07;;;2.10;99.90;;;;;;5048952;28;20219;-51
2023/03/05 03:26:01;;;;;;;4.10;1.10;;;2.10;99.90;;;;;;5046134;28;20199;-51
2023/03/05 03:28:51;;;;;;;3.00;0.90;;;2.10;99.90;;;;;;5034276;28;24278;-51
2023/03/05 03:31:18;;;;;;;2.90;0.90;;;2.00;99.90;;;;;;5059759;28;20209;-54
2023/03/05 03:33:45;;;;;;;2.73;1.33;;;2.00;99.90;;;;;;5045882;28;20191;-52
2023/03/05 03:36:13;;;;;;;2.83;1.00;;;2.00;99.90;;;;;;5045833;28;20202;-52
2023/03/05 03:38:40;;;;;;;1.50;0.57;;;1.90;99.90;;;;;;5042109;28;20210;-52
2023/03/05 03:41:07;;;;;;;2.80;0.70;;;1.90;99.90;;;;;;5045866;28;20199;-51
2023/03/05 03:43:34;;;;;;;1.97;1.13;;;1.90;99.90;;;;;;5041732;28;20952;-53
2023/03/05 03:46:04;;;;;;;1.30;1.10;;;1.90;99.90;;;;;;5036551;28;20226;-52
2023/03/05 03:48:31;;;;;;;2.70;0.90;;;1.90;99.90;;;;;;5052417;28;20191;-52
2023/03/05 03:50:58;;;;;;;2.63;0.70;;;1.90;99.90;;;;;;5062154;28;20669;-51
2023/03/05 03:53:25;;;;;;;5.60;0.93;;;1.80;99.90;;;;;;5041237;28;20233;-53
2023/03/05 03:55:58;;;;;;;3.73;0.80;;;1.90;99.90;;;;;;5048574;28;20568;-53
2023/03/05 03:58:25;;;;;;;2.20;0.67;;;1.90;99.90;;;;;;5039703;28;20278;-53
2023/03/05 04:00:52;;;;;;;3.33;0.60;;;1.80;99.90;;;;;;5035157;28;20210;-52
2023/03/05 04:03:20;;;;;;;2.27;0.73;;;1.90;99.90;;;;;;5053234;28;20222;-53
2023/03/05 04:05:47;;;;;;;8.87;0.93;;;1.90;99.90;;;;;;5045039;28;20670;-53
2023/03/05 04:08:14;;;;;;;0.97;0.60;;;1.90;99.90;;;;;;5042156;28;20199;-53
2023/03/05 04:10:41;;;;;;;4.07;0.97;;;1.90;99.90;;;;;;5050076;28;21063;-54
2023/03/05 04:13:08;;;;;;;5.83;0.70;;;1.90;99.90;;;;;;5052726;28;20214;-53
2023/03/05 04:15:35;;;;;;;1.37;0.57;;;1.90;99.90;;;;;;5036091;28;20214;-54
2023/03/05 04:18:01;;;;;;;1.90;0.50;;;1.90;99.90;;;;;;5053240;28;20562;-53
2023/03/05 04:20:30;;;;;;;3.50;0.60;;;1.90;99.90;;;;;;5045116;28;20203;-55
2023/03/05 04:22:57;;;;;;;2.80;0.80;;;1.80;99.90;;;;;;5045611;28;20232;-54
2023/03/05 04:25:24;;;;;;;6.00;1.00;;;1.80;99.90;;;;;;5043812;28;20455;-53
2023/03/05 04:27:51;;;;;;;3.63;0.63;;;1.80;99.90;;;;;;5044443;28;20205;-53
2023/03/05 04:30:40;;;;;;;5.07;0.60;;;1.80;99.90;;;;;;5035037;28;20221;-53
2023/03/05 04:33:07;;;;;;;1.60;0.47;;;1.80;99.90;;;;;;5044272;28;20211;-52
2023/03/05 04:35:36;;;;;;;0.60;0.50;;;1.80;99.90;;;;;;5046007;28;20929;-52
2023/03/05 04:38:04;;;;;;;4.73;0.90;;;1.90;99.90;;;;;;5053630;28;20285;-53
2023/03/05 04:40:30;;;;;;;2.57;0.57;;;1.90;99.90;;;;;;5055941;28;20206;-51
2023/03/05 04:42:57;;;;;;;4.13;0.83;;;1.90;99.90;;;;;;5049371;28;20218;-50
2023/03/05 04:45:24;;;;;;;4.80;0.87;;;1.80;99.90;;;;;;5036531;28;20630;-54
2023/03/05 04:48:11;;;;;;;3.93;1.00;;;1.80;99.90;;;;;;5050264;28;20202;-50
2023/03/05 04:50:39;;;;;;;4.10;0.90;;;1.80;99.90;;;;;;5044495;28;20191;-50
2023/03/05 04:53:05;;;;;;;4.17;0.80;;;1.80;99.90;;;;;;5045815;28;20223;-49
2023/03/05 04:55:33;;;;;;;3.27;0.80;;;1.80;99.90;;;;;;5039012;28;20662;-51
2023/03/05 04:58:00;;;;;;;3.57;0.90;;;1.80;99.90;;;;;;5051726;28;20194;-51
2023/03/05 05:00:26;;;;;;;3.47;1.13;;;1.80;99.90;;;;;;5055853;28;20661;-53
2023/03/05 05:02:53;;;;;;;2.63;0.90;;;1.80;99.90;;;;;;5041057;28;21082;-54
2023/03/05 05:05:23;;;;;;;2.67;1.00;;;1.90;99.90;;;;;;5046588;28;20202;-54
2023/03/05 05:07:54;;;;;;;2.37;1.53;;;1.90;99.90;;;;;;5047771;28;20217;-50
2023/03/05 05:10:20;;;;;;;3.23;1.60;;;1.80;99.90;;;;;;5044739;28;20210;-55
2023/03/05 05:12:47;;;;;;;4.37;2.07;;;1.90;99.90;;;;;;5050167;28;20211;-51
2023/03/05 05:15:14;;;;;;;3.57;2.67;;;1.90;99.90;;;;;;5044147;28;20202;-50
2023/03/05 05:17:41;;;;;;;6.50;3.20;;;1.90;99.90;;;;;;5030900;28;20195;-50
2023/03/05 05:20:10;;;;;;;7.63;2.87;;;1.90;99.90;;;;;;5049450;28;20191;-50
2023/03/05 05:22:37;;;;;;;6.93;3.13;;;1.90;99.90;;;;;;5035143;28;20239;-49
2023/03/05 05:25:06;;;;;;;7.87;3.60;;;1.90;99.90;;;;;;5049221;28;20199;-49
2023/03/05 05:27:33;;;;;;;8.07;3.87;;;1.90;99.90;;;;;;5040227;28;20200;-53
2023/03/05 05:30:01;;;;;;;6.50;3.37;;;1.90;99.90;;;;;;5044039;28;20564;-49
2023/03/05 05:32:27;;;;;;;6.53;2.97;;;1.90;99.90;;;;;;5032231;28;20681;-54
2023/03/05 05:34:55;;;;;;;6.33;2.93;;;1.90;99.90;;;;;;5052737;28;20203;-53
2023/03/05 05:37:22;;;;;;;5.07;2.80;;;1.90;99.90;;;;;;5045578;28;20207;-52
2023/03/05 05:39:50;;;;;;;5.77;2.93;;;1.90;99.90;;;;;;5048376;28;20310;-50
2023/03/05 05:42:20;;;;;;;4.33;3.47;;;1.90;99.90;;;;;;5050282;28;20219;-50
2023/03/05 05:44:47;;;;;;;6.13;2.67;;;1.90;99.90;;;;;;5046038;28;20194;-50
2023/03/05 05:47:14;;;;;;;6.67;2.73;;;1.90;99.90;;;;;;5043389;28;20222;-49
2023/03/05 05:49:41;;;;;;;4.37;2.43;;;1.90;99.90;;;;;;5035982;28;20210;-49
2023/03/05 05:52:08;;;;;;;6.63;2.60;;;1.80;99.90;;;;;;5057203;28;20246;-50
2023/03/05 05:54:56;;;;;;;3.80;2.43;;;1.80;99.90;;;;;;5040807;28;20712;-48
2023/03/05 05:57:25;;;;;;;3.20;1.90;;;1.80;99.90;;;;;;5041793;28;20199;-53
2023/03/05 05:59:52;;;;;;;7.53;1.93;;;1.90;99.90;;;;;;5041778;28;20195;-49
2023/03/05 06:02:19;;;;;;;5.37;1.57;;;1.90;99.90;;;;;;5037739;28;20226;-55
2023/03/05 06:04:45;;;;;;;2.43;1.70;;;1.80;99.90;;;;;;5037833;28;20932;-52
2023/03/05 06:07:12;;;;;;;2.40;1.13;;;1.90;99.90;;;;;;5051030;28;20230;-52
2023/03/05 06:09:39;;;;;;;3.03;1.20;;;1.90;99.90;;;;;;5044381;28;20210;-52
2023/03/05 06:12:07;;;;;;;6.67;1.23;;;1.80;99.90;;;;;;5052531;28;20321;-49
2023/03/05 06:14:35;;;;;;;1.83;1.13;;;1.90;99.90;;;;;;5039122;28;20727;-51
2023/03/05 06:17:03;;;;;;;1.07;0.90;;;1.80;99.90;;;;;;5046254;28;20191;-51
2023/03/05 06:19:30;;;;;;;5.60;1.00;;;1.90;99.90;;;;;;5035787;28;20199;-54
2023/03/05 06:21:57;;;;;;;6.43;1.07;;;1.90;99.90;;;;;;5051022;28;20261;-52
2023/03/05 06:24:24;;;;;;;6.57;0.97;;;1.90;99.90;;;;;;5052351;28;20203;-53
2023/03/05 06:26:50;;;;;;;4.10;1.03;;;1.90;99.90;;;;;;5043815;28;20312;-50
2023/03/05 06:29:41;;;;;;;2.27;0.97;;;2.00;99.90;;;;;;5041142;28;20601;-51
2023/03/05 06:32:08;;;;;;;4.10;1.10;;;2.00;99.90;;;;;;5051000;28;20586;-50
2023/03/05 06:34:35;;;;;;;4.33;0.90;;;2.00;99.90;;;;;;5041929;28;20298;-50
2023/03/05 06:37:03;;;;;;;6.10;1.20;;;2.10;99.90;;;;;;5050726;28;20661;-52
2023/03/05 06:39:31;;;;;;;2.83;0.97;;;2.10;99.90;;;;;;5053588;28;20291;-52
2023/03/05 06:41:58;;;;;;;2.33;0.73;;;2.00;99.90;;;;;;5054543;28;20301;-49
2023/03/05 06:44:25;;;;;;;3.60;0.97;;;2.00;99.90;;;;;;5051426;28;20613;-53
2023/03/05 06:46:54;;;;;;;4.37;1.00;;;2.10;99.90;;;;;;5055193;28;20207;-51
2023/03/05 06:49:22;;;;;;;1.27;0.70;;;2.10;99.90;;;;;;5051475;28;20221;-51
2023/03/05 06:51:48;;;;;;;6.73;0.90;;;2.10;99.90;;;;;;5044202;28;20222;-49
2023/03/05 06:54:17;;;;;;;5.00;1.10;;;2.10;99.90;;;;;;5048221;28;20203;-53
2023/03/05 06:56:46;;;;;;;2.40;0.70;;;2.20;99.90;;;;;;5058091;28;20191;-49
2023/03/05 06:59:14;;;;;;;4.87;0.70;;;2.20;99.90;;;;;;5048691;28;20203;-51
2023/03/05 07:01:42;;;;;;;6.67;1.17;;;2.20;99.90;;;;;;5054705;28;20268;-49
2023/03/05 07:04:11;;;;;;;0.93;0.60;;;2.30;99.90;;;;;;5048780;28;20221;-52
2023/03/05 07:06:41;;;;;;;2.80;0.87;;;2.30;99.90;;;;;;5039363;28;20872;-49
2023/03/05 07:09:10;;;;;;;4.80;0.60;;;2.30;99.90;;;;;;5048986;28;20708;-53
2023/03/05 07:11:38;;;;;;;2.93;0.80;;;2.40;99.90;;;;;;5059326;28;20225;-51
2023/03/05 07:14:26;;;;;;;4.80;1.00;;;2.40;99.90;;;;;;5048993;28;20206;-52
2023/03/05 07:16:53;;;;;;;1.70;0.77;;;2.30;99.90;;;;;;5054709;28;20200;-54
2023/03/05 07:19:21;;;;;;;2.37;0.93;;;2.30;99.90;;;;;;5046065;28;20293;-54
2023/03/05 07:21:48;;;;;;;2.63;1.00;;;2.40;99.90;;;;;;5054364;28;20260;-50
2023/03/05 07:24:15;;;;;;;2.13;1.07;;;2.50;99.90;;;;;;5035328;28;20246;-53
2023/03/05 07:26:42;;;;;;;1.13;0.60;;;2.50;99.90;;;;;;5050785;28;20318;-51
2023/03/05 07:29:09;;;;;;;3.43;0.97;;;2.50;99.90;;;;;;5049787;28;20241;-53
2023/03/05 07:31:36;;;;;;;2.20;0.60;;;2.50;99.90;;;;;;5049188;28;20187;-51
2023/03/05 07:34:05;;;;;;;1.77;0.83;;;2.50;99.90;;;;;;5056677;28;20198;-50
2023/03/05 07:36:34;;;;;;;4.73;1.13;;;2.60;99.90;;;;;;5042052;28;20927;-50
2023/03/05 07:39:01;;;;;;;2.40;0.57;;;2.60;99.90;;;;;;5033664;28;20195;-51
2023/03/05 07:41:27;;;;;;;4.23;0.93;;;2.60;99.90;;;;;;5042150;28;20194;-49
2023/03/05 07:43:55;;;;;;;1.37;0.67;;;2.60;99.90;;;;;;5051222;28;20698;-52
2023/03/05 07:46:24;;;;;;;4.43;0.87;;;2.60;99.90;;;;;;5056707;28;20202;-53
2023/03/05 07:48:51;;;;;;;2.30;0.60;;;2.60;99.90;;;;;;5049355;28;20202;-53
2023/03/05 07:51:19;;;;;;;2.17;0.63;;;2.60;99.90;;;;;;5052913;28;20257;-51
2023/03/05 07:53:49;;;;;;;1.43;0.60;;;2.60;99.90;;;;;;5040965;28;20310;-50
2023/03/05 07:56:22;;;;;;;1.47;0.40;;;2.70;99.90;;;;;;5050152;28;20211;-54
2023/03/05 07:58:48;;;;;;;5.17;0.60;;;2.70;99.90;;;;;;5053491;28;20202;-52
2023/03/05 08:01:15;;;;;;;2.23;0.50;;;2.80;99.90;;;;;;5050054;28;20290;-49
2023/03/05 08:03:43;;;;;;;2.47;0.77;;;2.80;99.90;;;;;;5047429;28;20936;-50
2023/03/05 08:06:11;;;;;;;3.40;0.70;;;2.80;99.90;;;;;;5051289;28;20614;-53
2023/03/05 08:08:38;;;;;;;1.87;0.40;;;2.90;99.90;;;;;;5040265;28;20214;-54
2023/03/05 08:11:08;;;;;;;1.53;0.50;;;3.00;99.90;;;;;;5056007;28;20199;-50
2023/03/05 08:13:36;;;;;;;1.90;0.80;;;3.00;99.90;;;;;;5049026;28;20199;-49
2023/03/05 08:16:05;;;;;;;0.53;0.40;;;3.10;99.90;;;;;;5056158;28;20200;-53
2023/03/05 08:18:32;;;;;;;1.27;0.70;;;3.10;99.90;;;;;;5050591;28;20248;-52
2023/03/05 08:21:25;;;;;;;2.80;0.83;;;3.10;99.90;;;;;;5054063;28;20318;-50
2023/03/05 08:23:52;;;;;;;3.13;0.70;;;3.20;99.90;;;;;;5048646;28;20257;-53
2023/03/05 08:26:24;;;;;;;4.83;0.80;;;3.20;99.90;;;;;;5039331;28;20203;-52
2023/03/05 08:28:51;;;;;;;4.60;0.80;;;3.20;99.90;;;;;;5051147;28;20725;-49
2023/03/05 08:31:20;;;;;;;2.67;0.60;;;3.30;99.90;;;;;;5050954;28;20202;-52
2023/03/05 08:33:49;;;;;;;2.33;0.70;;;3.30;99.90;;;;;;5047018;28;20206;-51
2023/03/05 08:36:16;;;;;;;3.70;0.77;;;3.30;99.90;;;;;;5059044;28;20260;-52
2023/03/05 08:38:45;;;;;;;2.20;0.90;;;3.30;99.90;;;;;;5041488;28;20211;-49
2023/03/05 08:41:12;;;;;;;3.70;0.87;;;3.30;99.90;;;;;;5042270;28;20276;-52
2023/03/05 08:43:41;;;;;;;5.27;0.60;;;3.30;99.90;;;;;;5052840;28;20302;-53
2023/03/05 08:46:08;;;;;;;1.00;0.50;;;3.40;99.90;;;;;;5049222;28;20731;-51
2023/03/05 08:48:35;;;;;;;1.77;0.70;;;3.40;99.90;;;;;;5038680;28;20270;-52
2023/03/05 08:51:07;;;;;;;1.93;0.70;;;3.40;99.90;;;;;;5055713;28;20255;-49
2023/03/05 08:53:34;;;;;;;2.83;0.57;;;3.40;99.90;;;;;;5049353;28;20230;-50
2023/03/05 08:56:00;;;;;;;3.80;1.07;;;3.50;99.90;;;;;;5034428;28;20305;-51
2023/03/05 08:58:28;;;;;;;2.67;0.80;;;3.40;99.90;;;;;;5048880;28;20191;-49
2023/03/05 09:00:56;;;;;;;2.03;0.60;;;3.50;99.90;;;;;;5059177;28;20205;-50
2023/03/05 09:03:23;;;;;;;0.70;0.60;;;3.60;99.90;;;;;;5046207;28;20237;-51
2023/03/05 09:05:51;;;;;;;1.70;1.03;;;3.70;99.90;;;;;;5051239;28;20203;-49
2023/03/05 09:08:18;;;;;;;1.50;0.90;;;3.80;99.90;;;;;;5043747;28;20203;-54
2023/03/05 09:10:46;;;;;;;2.73;0.87;;;3.80;99.90;;;;;;5041851;28;20203;-49
2023/03/05 09:13:13;;;;;;;2.40;0.90;;;3.70;99.90;;;;;;5037560;28;20211;-51
2023/03/05 09:15:40;;;;;;;3.60;0.97;;;3.60;99.90;;;;;;5044125;28;20201;-50
2023/03/05 09:18:09;;;;;;;2.63;1.30;;;3.70;99.90;;;;;;5051828;28;20203;-53
2023/03/05 09:20:36;;;;;;;2.33;0.70;;;3.90;99.90;;;;;;5050507;28;20201;-54
2023/03/05 09:23:03;;;;;;;5.00;1.97;;;4.00;99.90;;;;;;5055524;28;20222;-52
2023/03/05 09:25:30;;;;;;;2.90;1.47;;;4.10;99.90;;;;;;5036942;28;20207;-50
2023/03/05 09:27:56;;;;;;;3.27;1.17;;;4.10;99.90;;;;;;5037895;28;20700;-49
2023/03/05 09:30:23;;;;;;;2.00;0.80;;;4.20;99.90;;;;;;5042922;28;20199;-52
2023/03/05 09:32:50;;;;;;;2.37;0.70;;;4.20;99.90;;;;;;5048177;28;20226;-52
2023/03/05 09:35:18;;;;;;;4.10;0.97;;;4.10;99.90;;;;;;5051555;28;20195;-51
2023/03/05 09:37:44;;;;;;;3.70;0.80;;;4.10;99.90;;;;;;5046777;28;20196;-50
2023/03/05 09:40:16;;;;;;;1.33;0.50;;;4.10;99.90;;;;;;5046199;28;20199;-53
2023/03/05 09:42:51;;;;;;;2.17;0.80;;;4.10;99.90;;;;;;5035983;28;20226;-52
2023/03/05 09:45:46;;;;;;;5.00;0.80;;;4.00;99.90;;;;;;5047179;28;20198;-51
2023/03/05 09:48:19;;;;;;;3.63;1.20;;;4.00;99.90;;;;;;5049539;28;20217;-54
2023/03/05 09:50:53;;;;;;;3.30;0.90;;;4.00;99.90;;;;;;5046893;28;20701;-52
2023/03/05 09:53:34;;;;;;;1.93;0.50;;;3.90;99.90;;;;;;5043214;28;20284;-53
2023/03/05 09:56:09;;;;;;;3.83;0.80;;;3.80;99.90;;;;;;5040774;28;20245;-50
2023/03/05 09:58:39;;;;;;;1.83;0.73;;;3.60;99.90;;;;;;5034439;28;20196;-52
2023/03/05 10:01:10;;;;;;;1.70;0.83;;;3.50;99.90;;;;;;5046423;28;20203;-54
2023/03/05 10:03:49;;;;;;;2.57;0.73;;;3.40;99.90;;;;;;5043655;28;20252;-51
2023/03/05 10:06:23;;;;;;;2.47;0.57;;;3.30;99.90;;;;;;5045608;28;20199;-52
2023/03/05 10:08:54;;;;;;;1.03;0.63;;;3.20;99.90;;;;;;5045584;28;20274;-53
2023/03/05 10:11:41;;;;;;;4.23;0.87;;;3.00;99.90;;;;;;5026946;28;20207;-51
2023/03/05 10:14:15;;;;;;;5.20;1.50;;;2.90;99.90;;;;;;5038389;28;20207;-52
2023/03/05 10:17:06;;;;;;;3.53;0.80;;;2.80;99.90;;;;;;5052713;28;20576;-53
2023/03/05 10:20:00;;;;;;;3.67;0.97;;;2.70;99.90;;;;;;5040839;28;20207;-54
2023/03/05 10:22:33;;;;;;;7.50;0.90;;;2.80;99.90;;;;;;5051270;28;20716;-50
2023/03/05 10:25:16;;;;;;;6.53;1.40;;;2.80;99.90;;;;;;5049471;28;20266;-51
2023/03/05 10:27:48;;;;;;;8.50;1.17;;;2.90;99.90;;;;;;5037322;28;20209;-53
2023/03/05 10:30:31;;;;;;;3.93;1.00;;;3.10;99.90;;;;;;5051555;28;20558;-51
2023/03/05 10:33:26;;;;;;;2.00;0.50;;;3.20;99.90;;;;;;5054261;28;20244;-50
2023/03/05 10:36:23;;;;;;;2.00;0.73;;;3.30;99.90;;;;;;5037055;28;20211;-51
2023/03/05 10:39:15;;;;;;;1.80;0.60;;;3.50;99.90;;;;;;5018486;28;20214;-52
2023/03/05 10:41:51;;;;;;;1.80;0.70;;;3.50;99.90;;;;;;5039142;28;20234;-53
2023/03/05 10:44:26;;;;;;;5.17;0.90;;;3.70;99.90;;;;;;5038063;28;20256;-50
2023/03/05 10:46:57;;;;;;;4.97;0.70;;;3.80;99.90;;;;;;5043076;28;20232;-50
2023/03/05 10:49:29;;;;;;;2.53;0.73;;;3.90;99.90;;;;;;5041538;28;20226;-49
2023/03/05 10:52:18;;;;;;;2.27;0.60;;;3.90;99.90;;;;;;5048608;28;20242;-50
2023/03/05 10:54:46;;;;;;;4.03;0.60;;;4.00;99.90;;;;;;5043904;28;20191;-50
2023/03/05 10:57:21;;;;;;;2.73;0.60;;;4.10;99.90;;;;;;5052562;28;20206;-50
2023/03/05 11:00:18;;;;;;;1.30;0.60;;;4.30;99.90;;;;;;5028481;28;20218;-53
2023/03/05 11:02:57;;;;;;;0.57;0.57;;;4.40;99.90;;;;;;5046012;28;20222;-53
2023/03/05 11:05:42;;;;;;;4.07;0.67;;;4.50;99.90;;;;;;5047212;28;20226;-50
2023/03/05 11:08:24;;;;;;;0.43;0.40;;;4.30;99.90;;;;;;5049374;28;20213;-50
2023/03/05 11:11:05;;;;;;;4.83;1.10;;;4.30;99.90;;;;;;5059398;28;20566;-53
2023/03/05 11:13:56;;;;;;;1.33;0.83;;;4.30;99.90;;;;;;5047195;28;20222;-50
2023/03/05 11:16:26;;;;;;;1.83;0.80;;;4.30;99.90;;;;;;5043585;28;20605;-53
2023/03/05 11:19:16;;;;;;;1.63;0.80;;;4.40;99.90;;;;;;5045322;28;20199;-54
2023/03/05 11:21:44;;;;;;;2.10;0.83;;;4.50;99.90;;;;;;5052310;28;20214;-53
2023/03/05 11:24:14;;;;;;;2.63;0.63;;;4.50;99.90;;;;;;5056912;28;20218;-52
2023/03/05 11:26:56;;;;;;;2.63;0.73;;;4.10;99.90;;;;;;5043996;28;20286;-51
2023/03/05 11:29:24;;;;;;;2.30;0.70;;;3.70;99.90;;;;;;5051967;28;20206;-50
2023/03/05 11:31:52;;;;;;;0.43;0.40;;;3.30;99.90;;;;;;5032057;28;20223;-54
2023/03/05 11:34:24;;;;;;;1.10;0.50;;;3.20;99.90;;;;;;5052966;28;20198;-50
2023/03/05 11:37:04;;;;;;;0.73;0.40;;;3.00;99.90;;;;;;5042218;28;20208;-53
2023/03/05 11:39:36;;;;;;;1.17;0.57;;;3.00;99.90;;;;;;5045976;28;20665;-49
2023/03/05 11:42:10;;;;;;;2.73;0.43;;;3.00;99.90;;;;;;5048594;28;20226;-52
2023/03/05 11:44:46;;;;;;;1.03;0.43;;;3.00;99.90;;;;;;5050178;28;21038;-52
2023/03/05 11:47:23;;;;;;;0.80;0.53;;;3.00;99.90;;;;;;5059573;28;20308;-50
2023/03/05 11:49:55;;;;;;;3.73;0.73;;;3.10;99.90;;;;;;5055070;28;20247;-51
2023/03/05 11:52:25;;;;;;;3.80;0.90;;;3.30;99.90;;;;;;5043827;28;20766;-49
2023/03/05 11:54:58;;;;;;;1.17;0.70;;;3.40;99.90;;;;;;5041438;28;20192;-50
2023/03/05 11:57:32;;;;;;;0.93;0.80;;;3.60;99.90;;;;;;5042334;28;20206;-50
2023/03/05 12:00:04;;;;;;;3.57;1.40;;;3.80;99.90;;;;;;5045500;28;20187;-53
2023/03/05 12:02:31;;;;;;;1.17;0.90;;;4.10;99.90;;;;;;5040562;28;20223;-49
2023/03/05 12:05:02;;;;;;;2.13;1.17;;;4.20;99.90;;;;;;5050480;28;20219;-50
2023/03/05 12:07:35;;;;;;;1.77;1.00;;;4.30;99.90;;;;;;5050196;28;20192;-53
2023/03/05 12:10:02;;;;;;;1.70;1.20;;;4.30;99.90;;;;;;5043917;28;20202;-51
2023/03/05 12:12:39;;;;;;;4.17;1.60;;;4.40;99.90;;;;;;5045056;28;20226;-53
2023/03/05 12:15:35;;;;;;;3.77;1.30;;;4.40;99.90;;;;;;5040172;28;20205;-51
2023/03/05 12:18:20;;;;;;;3.17;1.17;;;4.50;99.90;;;;;;5050140;28;20205;-49
2023/03/05 12:20:57;;;;;;;3.43;1.00;;;4.50;99.90;;;;;;5045719;28;20210;-51
2023/03/05 12:23:25;;;;;;;1.90;1.03;;;4.50;99.90;;;;;;5052740;28;20332;-54
2023/03/05 12:26:14;;;;;;;3.17;1.20;;;4.60;99.90;;;;;;5046049;28;20256;-50
2023/03/05 12:28:57;;;;;;;1.57;1.33;;;4.80;99.90;;;;;;5045942;28;20194;-47
2023/03/05 12:31:45;;;;;;;1.30;1.20;;;4.90;99.90;;;;;;5029448;28;20241;-49
2023/03/05 12:34:48;;;;;;;4.60;1.10;;;5.10;99.90;;;;;;5050109;28;20209;-55
2023/03/05 12:37:53;;;;;;;3.13;1.20;;;5.10;99.90;;;;;;5013381;28;20699;-49
2023/03/05 12:40:22;;;;;;;1.73;0.80;;;5.10;99.90;;;;;;5001369;28;20245;-52
2023/03/05 12:42:57;;;;;;;3.40;0.43;;;5.10;99.90;;;;;;5032629;28;20235;-47
2023/03/05 12:45:46;;;;;;;2.40;0.40;;;5.30;99.90;;;;;;5036353;28;20812;-48
2023/03/05 12:48:45;;;;;;;3.53;0.60;;;5.50;99.90;;;;;;5038189;28;20697;-51
2023/03/05 12:51:29;;;;;;;1.40;0.30;;;5.50;99.90;;;;;;5047231;28;20203;-47
2023/03/05 12:53:56;;;;;;;0.30;0.30;;;5.50;99.90;;;;;;5037193;28;20192;-52
2023/03/05 12:56:29;;;;;;;1.03;0.60;;;5.40;99.90;;;;;;5052008;28;20205;-51
2023/03/05 12:59:00;;;;;;;0.40;0.40;;;5.40;99.90;;;;;;5041660;28;20788;-50
2023/03/05 13:01:38;;;;;;;2.20;0.40;;;5.30;99.90;;;;;;5042787;28;20269;-52
2023/03/05 13:04:09;;;;;;;2.27;0.40;;;5.30;99.90;;;;;;5038850;28;20813;-52
2023/03/05 13:06:38;;;;;;;2.53;0.37;;;5.20;99.90;;;;;;5045179;28;20211;-49
2023/03/05 13:09:14;;;;;;;1.43;0.30;;;5.20;99.90;;;;;;5053230;28;20252;-50
2023/03/05 13:11:44;;;;;;;1.67;0.27;;;5.20;99.90;;;;;;5046708;28;20226;-50
2023/03/05 13:14:33;;;;;;;1.03;0.30;;;5.10;99.90;;;;;;5048928;28;20290;-51
2023/03/05 13:17:01;;;;;;;1.30;0.30;;;5.00;99.90;;;;;;5046246;28;20204;-53